createdAt,value
2023-09-30T00:04:46.781Z,64.19
2023-09-30T00:09:53.863Z,64.36
2023-09-30T00:15:01.037Z,64.69
2023-09-30T00:20:10.717Z,64.79
2023-09-30T00:25:18.052Z,64.89
2023-09-30T00:30:25.686Z,65.00
2023-09-30T00:35:34.057Z,64.99
2023-09-30T00:40:41.730Z,65.13
2023-09-30T00:45:49.241Z,65.14
2023-09-30T00:50:57.397Z,65.34
2023-09-30T00:56:04.870Z,65.49
2023-09-30T01:01:12.999Z,65.60
2023-09-30T01:06:20.519Z,65.64
2023-09-30T01:11:26.626Z,65.78
2023-09-30T01:16:33.929Z,65.85
2023-09-30T01:21:42.948Z,65.92
2023-09-30T01:26:48.543Z,66.09
2023-09-30T01:31:55.925Z,66.18
2023-09-30T01:37:03.482Z,66.14
2023-09-30T01:42:10.653Z,66.03
2023-09-30T01:47:18.006Z,66.12
2023-09-30T01:52:25.271Z,66.23
2023-09-30T01:57:32.523Z,66.44
2023-09-30T02:02:39.835Z,66.51
2023-09-30T02:07:46.993Z,66.62
2023-09-30T02:12:54.202Z,66.66
2023-09-30T02:18:01.927Z,66.85
2023-09-30T02:23:09.140Z,66.99
2023-09-30T02:28:16.512Z,67.00
2023-09-30T02:33:23.781Z,67.04
2023-09-30T02:38:31.371Z,66.98
2023-09-30T02:43:36.937Z,67.17
2023-09-30T02:48:44.212Z,67.34
2023-09-30T02:53:52.059Z,67.31
2023-09-30T02:59:00.822Z,67.29
2023-09-30T03:04:08.912Z,67.49
2023-09-30T03:09:16.569Z,67.63
2023-09-30T03:14:23.824Z,67.68
2023-09-30T03:19:31.294Z,67.88
2023-09-30T03:24:38.645Z,67.92
2023-09-30T03:29:46.017Z,68.07
2023-09-30T03:34:54.577Z,68.32
2023-09-30T03:40:13.062Z,68.42
2023-09-30T03:45:20.865Z,68.46
2023-09-30T03:50:31.480Z,68.55
2023-09-30T03:55:39.513Z,68.71
2023-09-30T04:00:47.526Z,68.77
2023-09-30T04:05:54.753Z,68.99
2023-09-30T04:11:01.869Z,69.07
2023-09-30T04:16:09.333Z,68.99
2023-09-30T04:21:15.053Z,68.87
2023-09-30T04:26:22.394Z,68.90
2023-09-30T04:31:30.122Z,69.01
2023-09-30T04:36:37.562Z,69.03
2023-09-30T04:41:44.685Z,68.82
2023-09-30T04:46:51.880Z,68.77
2023-09-30T04:51:59.036Z,68.77
2023-09-30T04:57:06.748Z,69.02
2023-09-30T05:02:16.234Z,68.97
2023-09-30T05:07:23.900Z,68.97
2023-09-30T05:12:29.444Z,69.00
2023-09-30T05:17:36.583Z,68.98
2023-09-30T05:22:47.160Z,68.67
2023-09-30T05:27:55.280Z,68.56
2023-09-30T05:33:02.564Z,68.74
2023-09-30T05:38:11.393Z,68.59
2023-09-30T05:43:18.513Z,68.51
2023-09-30T05:48:25.880Z,68.51
2023-09-30T05:53:33.955Z,68.36
2023-09-30T05:58:42.255Z,68.40
2023-09-30T06:03:49.736Z,68.33
2023-09-30T06:08:59.380Z,68.30
2023-09-30T06:14:07.679Z,68.32
2023-09-30T06:19:19.187Z,68.00
2023-09-30T06:24:27.154Z,67.76
2023-09-30T06:29:35.013Z,67.73
2023-09-30T06:34:42.128Z,67.48
2023-09-30T06:39:49.909Z,67.09
2023-09-30T06:44:57.087Z,66.75
2023-09-30T06:50:09.106Z,66.43
2023-09-30T06:55:17.929Z,66.34
2023-09-30T07:00:27.018Z,66.37
2023-09-30T07:05:34.547Z,66.11
2023-09-30T07:10:41.611Z,65.95
2023-09-30T07:15:50.723Z,65.95
2023-09-30T07:20:58.306Z,65.86
2023-09-30T07:26:05.574Z,65.63
2023-09-30T07:31:13.520Z,65.11
2023-09-30T07:36:21.091Z,64.79
2023-09-30T07:41:28.360Z,64.63
2023-09-30T07:46:35.752Z,64.12
2023-09-30T07:51:43.375Z,63.78
2023-09-30T07:56:50.682Z,62.95
2023-09-30T08:01:58.736Z,62.30
2023-09-30T08:07:06.383Z,61.87
2023-09-30T08:12:13.870Z,61.29
2023-09-30T08:17:20.952Z,61.03
2023-09-30T08:22:29.543Z,60.65
2023-09-30T08:27:44.542Z,60.05
2023-09-30T08:32:53.069Z,59.39
2023-09-30T08:38:06.183Z,59.19
2023-09-30T08:43:20.157Z,59.12
2023-09-30T08:48:30.764Z,58.78
2023-09-30T08:53:39.628Z,58.51
2023-09-30T08:58:47.803Z,58.33
2023-09-30T09:03:55.525Z,57.45
2023-09-30T09:09:19.579Z,57.12
2023-09-30T09:14:41.273Z,56.89
2023-09-30T09:20:05.862Z,56.32
2023-09-30T09:25:13.928Z,56.43
2023-09-30T09:30:24.333Z,56.45
2023-09-30T09:35:34.231Z,56.46
2023-09-30T09:40:42.183Z,56.07
2023-09-30T09:45:50.711Z,56.30
2023-09-30T09:50:58.108Z,55.87
2023-09-30T09:56:08.506Z,55.92
2023-09-30T10:01:16.269Z,55.83
2023-09-30T10:06:23.802Z,55.82
2023-09-30T10:11:29.465Z,55.60
2023-09-30T10:16:53.753Z,55.17
2023-09-30T10:22:16.831Z,55.26
2023-09-30T10:27:34.394Z,55.06
2023-09-30T10:32:58.526Z,54.85
2023-09-30T10:38:17.613Z,54.56
2023-09-30T10:43:33.153Z,54.55
2023-09-30T10:48:39.952Z,54.33
2023-09-30T10:53:46.806Z,54.06
2023-09-30T10:58:53.968Z,54.01
2023-09-30T11:04:06.038Z,54.04
2023-09-30T11:09:14.618Z,54.23
2023-09-30T11:14:21.218Z,54.27
2023-09-30T11:19:27.187Z,53.89
2023-09-30T11:24:35.043Z,53.54
2023-09-30T11:29:50.650Z,53.75
2023-09-30T11:34:56.728Z,53.61
2023-09-30T11:40:12.359Z,53.48
2023-09-30T11:45:24.894Z,53.53
2023-09-30T11:50:47.454Z,53.37
2023-09-30T11:55:56.268Z,53.08
2023-09-30T12:01:02.286Z,52.81
2023-09-30T12:06:07.941Z,52.74
2023-09-30T12:11:14.465Z,52.47
2023-09-30T12:16:20.398Z,52.30
2023-09-30T12:21:25.991Z,52.32
2023-09-30T12:26:32.121Z,52.11
2023-09-30T12:31:50.216Z,52.00
2023-09-30T12:36:59.214Z,52.11
2023-09-30T12:42:10.391Z,52.13
2023-09-30T12:47:16.195Z,51.68
2023-09-30T12:52:21.762Z,51.60
2023-09-30T12:57:27.627Z,51.44
2023-09-30T13:02:34.248Z,51.19
2023-09-30T13:07:39.972Z,51.11
2023-09-30T13:12:46.042Z,50.98
2023-09-30T13:17:51.750Z,50.85
2023-09-30T13:22:58.719Z,50.66
2023-09-30T13:28:04.497Z,50.57
2023-09-30T13:33:10.403Z,50.52
2023-09-30T13:38:17.666Z,50.46
2023-09-30T13:43:23.455Z,50.45
2023-09-30T13:48:29.232Z,50.40
2023-09-30T13:53:35.252Z,50.31
2023-09-30T13:58:40.943Z,50.28
2023-09-30T14:03:48.468Z,50.22
2023-09-30T14:08:55.084Z,50.09
2023-09-30T14:14:02.147Z,49.90
2023-09-30T14:19:07.771Z,49.71
2023-09-30T14:24:14.304Z,49.85
2023-09-30T14:29:19.902Z,49.83
2023-09-30T14:34:26.404Z,49.77
2023-09-30T14:39:32.210Z,49.87
2023-09-30T14:44:37.883Z,49.98
2023-09-30T14:49:43.464Z,49.89
2023-09-30T14:54:51.928Z,49.98
2023-09-30T14:59:59.536Z,49.87
2023-09-30T15:05:05.789Z,50.05
2023-09-30T15:10:13.434Z,50.08
2023-09-30T15:15:19.135Z,50.02
2023-09-30T15:20:26.583Z,49.80
2023-09-30T15:25:32.661Z,49.91
2023-09-30T15:30:42.264Z,49.89
2023-09-30T15:35:49.224Z,49.87
2023-09-30T15:40:58.906Z,49.87
2023-09-30T15:46:05.806Z,49.94
2023-09-30T15:51:11.905Z,50.01
2023-09-30T15:56:17.848Z,50.08
2023-09-30T16:01:24.985Z,50.13
2023-09-30T16:06:31.000Z,50.10
2023-09-30T16:11:36.655Z,50.26
2023-09-30T16:16:59.574Z,50.30
2023-09-30T16:22:05.611Z,50.43
2023-09-30T16:27:11.600Z,50.48
2023-09-30T16:32:17.337Z,50.50
2023-09-30T16:37:22.905Z,50.61
2023-09-30T16:42:30.351Z,50.54
2023-09-30T16:47:38.786Z,50.53
2023-09-30T16:52:44.252Z,50.77
2023-09-30T16:57:50.006Z,50.76
2023-09-30T17:02:55.737Z,50.92
2023-09-30T17:08:01.521Z,51.02
2023-09-30T17:13:08.012Z,51.13
2023-09-30T17:18:16.491Z,51.22
2023-09-30T17:23:22.354Z,51.47
2023-09-30T17:28:28.008Z,51.50
2023-09-30T17:33:33.787Z,51.59
2023-09-30T17:38:40.630Z,51.70
2023-09-30T17:43:48.827Z,52.01
2023-09-30T17:48:54.566Z,52.15
2023-09-30T17:54:00.659Z,52.39
2023-09-30T17:59:06.438Z,52.45
2023-09-30T18:04:12.283Z,52.59
2023-09-30T18:09:18.130Z,52.78
2023-09-30T18:14:23.819Z,53.04
2023-09-30T18:19:29.642Z,53.19
2023-09-30T18:24:35.370Z,53.37
2023-09-30T18:29:42.469Z,53.56
2023-09-30T18:34:48.301Z,53.78
2023-09-30T18:39:54.885Z,54.01
2023-09-30T18:45:00.849Z,54.28
2023-09-30T18:50:07.754Z,54.45
2023-09-30T18:55:13.876Z,54.52
2023-09-30T19:00:19.798Z,54.66
2023-09-30T19:05:26.300Z,54.84
2023-09-30T19:10:32.379Z,55.07
2023-09-30T19:15:38.354Z,55.27
2023-09-30T19:20:47.931Z,55.41
2023-09-30T19:25:55.101Z,55.56
2023-09-30T19:31:01.066Z,55.80
2023-09-30T19:36:10.406Z,55.92
2023-09-30T19:41:21.930Z,56.26
2023-09-30T19:46:27.849Z,56.48
2023-09-30T19:51:33.693Z,56.73
2023-09-30T19:56:39.319Z,56.73
2023-09-30T20:01:45.548Z,57.02
2023-09-30T20:06:51.569Z,57.30
2023-09-30T20:12:03.950Z,57.32
2023-09-30T20:17:10.177Z,57.43
2023-09-30T20:22:16.013Z,57.50
2023-09-30T20:27:21.709Z,57.69
2023-09-30T20:32:27.856Z,58.10
2023-09-30T20:37:33.731Z,58.17
2023-09-30T20:42:41.053Z,58.35
2023-09-30T20:47:46.854Z,58.44
2023-09-30T20:52:52.822Z,58.63
2023-09-30T20:57:59.223Z,58.67
2023-09-30T21:03:05.399Z,58.90
2023-09-30T21:08:11.326Z,59.03
2023-09-30T21:13:16.912Z,59.08
2023-09-30T21:18:22.574Z,59.20
2023-09-30T21:23:28.227Z,59.40
2023-09-30T21:28:34.429Z,59.56
2023-09-30T21:33:40.041Z,59.73
2023-09-30T21:38:47.022Z,59.83
2023-09-30T21:43:52.663Z,59.88
2023-09-30T21:48:58.850Z,60.07
2023-09-30T21:54:04.900Z,60.23
2023-09-30T21:59:10.491Z,60.46
2023-09-30T22:04:18.032Z,60.65
2023-09-30T22:09:24.384Z,60.92
2023-09-30T22:14:30.300Z,61.11
2023-09-30T22:19:35.965Z,61.25
2023-09-30T22:24:41.526Z,61.32
2023-09-30T22:29:50.402Z,61.52
2023-09-30T22:34:56.209Z,61.70
2023-09-30T22:40:01.820Z,61.79
2023-09-30T22:45:09.692Z,61.92
2023-09-30T22:50:16.392Z,61.98
2023-09-30T22:55:23.164Z,62.15
2023-09-30T23:00:29.405Z,62.29
2023-09-30T23:05:34.924Z,62.30
2023-09-30T23:10:40.588Z,62.38
2023-09-30T23:15:46.592Z,62.52
2023-09-30T23:20:52.318Z,62.55
2023-09-30T23:25:58.150Z,62.65
2023-09-30T23:31:04.987Z,62.60
2023-09-30T23:36:13.540Z,62.68
2023-09-30T23:41:20.033Z,62.86
2023-09-30T23:46:26.628Z,63.00
2023-09-30T23:51:32.386Z,63.07
2023-09-30T23:56:39.922Z,63.26
